createdAt,value
2023-02-03T00:00:00.742Z,13.13
2023-02-03T00:02:27.592Z,6.47
2023-02-03T00:04:54.444Z,8.30
2023-02-03T00:07:21.376Z,13.50
2023-02-03T00:09:48.500Z,9.70
2023-02-03T00:12:15.530Z,11.55
2023-02-03T00:14:42.588Z,8.18
2023-02-03T00:17:09.679Z,7.38
2023-02-03T00:19:37.207Z,7.20
2023-02-03T00:22:04.161Z,7.13
2023-02-03T00:24:31.058Z,10.68
2023-02-03T00:26:57.980Z,8.32
2023-02-03T00:29:26.054Z,8.05
2023-02-03T00:31:54.261Z,9.88
2023-02-03T00:34:21.810Z,8.00
2023-02-03T00:36:49.360Z,12.18
2023-02-03T00:39:16.682Z,10.50
2023-02-03T00:41:43.596Z,9.95
2023-02-03T00:44:11.108Z,8.30
2023-02-03T00:46:38.316Z,10.57
2023-02-03T00:49:05.931Z,10.75
2023-02-03T00:51:34.162Z,8.32
2023-02-03T00:54:01.068Z,8.73
2023-02-03T00:56:29.713Z,10.00
2023-02-03T00:58:56.711Z,11.70
2023-02-03T01:01:46.025Z,9.95
2023-02-03T01:04:25.838Z,13.95
2023-02-03T01:06:57.478Z,15.43
2023-02-03T01:09:24.765Z,14.48
2023-02-03T01:12:03.800Z,13.50
2023-02-03T01:14:31.905Z,14.07
2023-02-03T01:16:59.032Z,10.43
2023-02-03T01:19:26.090Z,11.77
2023-02-03T01:21:53.095Z,19.63
2023-02-03T01:24:20.076Z,10.18
2023-02-03T01:26:47.008Z,12.07
2023-02-03T01:29:14.662Z,10.77
2023-02-03T01:31:42.820Z,9.45
2023-02-03T01:34:16.421Z,12.10
2023-02-03T01:36:44.002Z,11.40
2023-02-03T01:39:11.327Z,9.13
2023-02-03T01:41:40.343Z,7.53
2023-02-03T01:44:52.595Z,10.30
2023-02-03T01:47:36.816Z,7.20
2023-02-03T01:50:08.811Z,9.02
2023-02-03T01:52:37.562Z,9.00
2023-02-03T01:55:09.570Z,6.82
2023-02-03T01:57:45.283Z,8.32
2023-02-03T02:00:13.378Z,5.35
2023-02-03T02:02:44.022Z,9.25
2023-02-03T02:05:47.032Z,5.35
2023-02-03T02:08:18.442Z,3.80
2023-02-03T02:10:45.973Z,6.57
2023-02-03T02:13:14.751Z,4.50
2023-02-03T02:16:02.363Z,8.15
2023-02-03T02:18:59.722Z,10.85
2023-02-03T02:21:51.438Z,7.85
2023-02-03T02:24:59.108Z,10.90
2023-02-03T02:28:00.913Z,8.15
2023-02-03T02:31:30.327Z,9.00
2023-02-03T02:37:09.509Z,12.85
2023-02-03T02:40:20.955Z,7.15
2023-02-03T02:43:04.778Z,5.93
2023-02-03T02:45:54.120Z,6.35
2023-02-03T02:48:31.686Z,8.80
2023-02-03T02:51:00.893Z,4.45
2023-02-03T02:53:39.618Z,9.65
2023-02-03T02:56:11.746Z,10.57
2023-02-03T02:58:42.674Z,12.65
2023-02-03T03:01:10.255Z,6.93
2023-02-03T03:03:40.576Z,7.25
2023-02-03T03:06:17.457Z,11.63
2023-02-03T03:08:56.989Z,9.52
2023-02-03T03:11:30.041Z,9.20
2023-02-03T03:13:59.083Z,9.23
2023-02-03T03:16:35.043Z,7.85
2023-02-03T03:19:09.935Z,6.68
2023-02-03T03:21:49.180Z,7.75
2023-02-03T03:24:37.960Z,6.47
2023-02-03T03:27:22.925Z,5.80
2023-02-03T03:30:01.628Z,3.80
2023-02-03T03:32:32.830Z,5.47
2023-02-03T03:35:02.562Z,7.22
2023-02-03T03:37:46.325Z,6.63
2023-02-03T03:40:34.938Z,4.78
2023-02-03T03:43:25.599Z,7.47
2023-02-03T03:46:12.462Z,6.90
2023-02-03T03:48:53.223Z,10.60
2023-02-03T03:51:32.271Z,5.18
2023-02-03T03:54:08.323Z,6.50
2023-02-03T03:56:45.958Z,3.70
2023-02-03T03:59:19.337Z,6.13
2023-02-03T04:01:49.442Z,5.82
2023-02-03T04:04:17.782Z,5.72
2023-02-03T04:06:44.687Z,7.40
2023-02-03T04:09:11.656Z,7.78
2023-02-03T04:11:57.074Z,6.18
2023-02-03T04:14:24.121Z,6.85
2023-02-03T04:16:50.994Z,6.97
2023-02-03T04:19:17.883Z,8.15
2023-02-03T04:21:44.767Z,8.57
2023-02-03T04:24:12.130Z,8.38
2023-02-03T04:26:39.677Z,10.27
2023-02-03T04:29:06.749Z,9.93
2023-02-03T04:31:34.046Z,8.60
2023-02-03T04:34:00.954Z,11.50
2023-02-03T04:36:28.102Z,8.52
2023-02-03T04:38:54.958Z,11.32
2023-02-03T04:41:22.008Z,9.15
2023-02-03T04:43:49.072Z,8.75
2023-02-03T04:46:15.982Z,9.98
2023-02-03T04:48:42.893Z,10.18
2023-02-03T04:51:09.943Z,9.82
2023-02-03T04:53:37.376Z,9.23
2023-02-03T04:56:04.764Z,10.35
2023-02-03T04:58:31.658Z,12.07
2023-02-03T05:01:49.803Z,11.10
2023-02-03T05:04:16.767Z,10.32
2023-02-03T05:06:43.773Z,13.85
2023-02-03T05:09:11.163Z,11.68
2023-02-03T05:12:32.081Z,8.98
2023-02-03T05:15:02.902Z,10.02
2023-02-03T05:17:55.847Z,10.60
2023-02-03T05:20:23.603Z,10.93
2023-02-03T05:22:50.517Z,9.77
2023-02-03T05:25:17.503Z,8.70
2023-02-03T05:27:44.444Z,9.40
2023-02-03T05:33:57.087Z,11.50
2023-02-03T05:36:24.248Z,11.77
2023-02-03T05:38:51.147Z,12.68
2023-02-03T05:45:12.900Z,9.90
2023-02-03T05:47:46.836Z,11.98
2023-02-03T05:50:16.041Z,10.85
2023-02-03T05:52:43.090Z,10.77
2023-02-03T05:56:01.360Z,9.65
2023-02-03T05:58:35.067Z,9.32
2023-02-03T06:01:01.961Z,9.75
2023-02-03T06:03:28.865Z,11.02
2023-02-03T06:05:56.432Z,9.68
2023-02-03T06:08:23.346Z,9.02
2023-02-03T06:10:50.244Z,10.85
2023-02-03T06:13:17.104Z,10.68
2023-02-03T06:16:28.599Z,10.05
2023-02-03T06:19:04.180Z,8.40
2023-02-03T06:21:33.193Z,10.13
2023-02-03T06:24:00.170Z,10.77
2023-02-03T06:26:27.048Z,13.73
2023-02-03T06:28:54.127Z,9.25
2023-02-03T06:31:22.355Z,11.32
2023-02-03T06:33:49.464Z,11.57
2023-02-03T06:36:30.685Z,9.00
2023-02-03T06:41:47.042Z,9.38
2023-02-03T06:44:23.238Z,8.20
2023-02-03T06:47:01.755Z,9.50
2023-02-03T06:49:30.141Z,9.63
2023-02-03T06:52:03.235Z,8.80
2023-02-03T06:54:37.198Z,8.95
2023-02-03T06:57:35.039Z,9.23
2023-02-03T07:00:22.865Z,9.73
2023-02-03T07:02:58.388Z,8.50
2023-02-03T07:05:27.802Z,7.10
2023-02-03T07:07:55.062Z,10.50
2023-02-03T07:10:22.041Z,10.07
2023-02-03T07:12:50.658Z,9.90
2023-02-03T07:15:40.990Z,8.45
2023-02-03T07:18:07.936Z,7.63
2023-02-03T07:20:34.782Z,6.10
2023-02-03T07:23:01.805Z,8.40
2023-02-03T07:25:29.322Z,9.93
2023-02-03T07:28:32.068Z,7.60
2023-02-03T07:30:59.108Z,7.22
2023-02-03T07:33:27.755Z,8.85
2023-02-03T07:35:57.216Z,6.00
2023-02-03T07:38:48.591Z,7.57
2023-02-03T07:41:17.970Z,8.90
2023-02-03T07:43:45.145Z,5.75
2023-02-03T07:46:12.517Z,5.10
2023-02-03T07:48:57.936Z,8.73
2023-02-03T07:51:24.921Z,7.55
2023-02-03T07:53:51.833Z,7.75
2023-02-03T07:56:18.749Z,5.38
2023-02-03T07:58:45.696Z,6.20
2023-02-03T08:01:17.037Z,9.10
2023-02-03T08:03:46.212Z,8.68
2023-02-03T08:06:13.152Z,5.93
2023-02-03T08:08:41.751Z,7.00
2023-02-03T08:11:09.044Z,6.78
2023-02-03T08:14:04.737Z,6.75
2023-02-03T08:16:52.631Z,6.03
2023-02-03T08:19:50.517Z,9.30
2023-02-03T08:22:30.383Z,6.50
2023-02-03T08:29:09.186Z,7.00
2023-02-03T08:32:01.380Z,5.45
2023-02-03T08:35:14.339Z,5.68
2023-02-03T08:37:41.513Z,8.80
2023-02-03T08:40:10.264Z,5.53
2023-02-03T08:42:37.618Z,4.88
2023-02-03T08:45:05.468Z,4.80
2023-02-03T08:47:36.932Z,4.47
2023-02-03T08:50:09.321Z,5.68
2023-02-03T08:52:36.309Z,5.65
2023-02-03T08:55:06.874Z,4.72
2023-02-03T08:57:36.477Z,6.82
2023-02-03T09:00:12.180Z,4.95
2023-02-03T09:02:39.629Z,5.28
2023-02-03T09:05:07.339Z,6.00
2023-02-03T09:07:34.329Z,5.30
2023-02-03T09:10:01.889Z,5.22
2023-02-03T09:12:28.752Z,5.63
2023-02-03T09:15:21.791Z,4.85
2023-02-03T09:17:49.177Z,4.55
2023-02-03T09:20:21.311Z,5.25
2023-02-03T09:23:01.590Z,4.57
2023-02-03T09:30:01.432Z,6.63
2023-02-03T09:32:34.207Z,7.28
2023-02-03T09:35:02.671Z,5.03
2023-02-03T09:37:38.524Z,6.35
2023-02-03T09:40:07.315Z,11.15
2023-02-03T09:43:06.709Z,8.82
2023-02-03T09:45:33.786Z,6.97
2023-02-03T09:48:21.296Z,5.60
2023-02-03T09:50:52.964Z,7.07
2023-02-03T09:53:45.876Z,6.03
2023-02-03T09:56:27.394Z,8.30
2023-02-03T09:58:57.139Z,5.15
2023-02-03T10:01:55.383Z,9.90
2023-02-03T10:04:42.023Z,8.13
2023-02-03T10:07:28.798Z,7.65
2023-02-03T10:10:30.133Z,5.47
2023-02-03T10:13:17.232Z,10.48
2023-02-03T10:18:42.214Z,9.32
2023-02-03T10:21:41.402Z,9.27
2023-02-03T10:24:56.419Z,7.47
2023-02-03T10:27:39.044Z,6.53
2023-02-03T10:31:14.429Z,9.30
2023-02-03T10:33:41.445Z,6.65
2023-02-03T10:37:05.967Z,10.60
2023-02-03T10:39:52.452Z,5.68
2023-02-03T10:42:52.653Z,5.32
2023-02-03T10:45:32.912Z,7.30
2023-02-03T10:52:04.562Z,7.25
2023-02-03T10:54:36.761Z,6.15
2023-02-03T10:57:14.870Z,5.95
2023-02-03T11:00:22.598Z,7.72
2023-02-03T11:03:00.850Z,7.38
2023-02-03T11:06:24.455Z,10.60
2023-02-03T11:08:52.639Z,10.45
2023-02-03T11:15:35.081Z,6.25
2023-02-03T11:18:02.315Z,4.97
2023-02-03T11:20:30.204Z,4.35
2023-02-03T11:23:05.868Z,7.53
2023-02-03T11:25:33.739Z,6.20
2023-02-03T11:28:07.973Z,8.25
2023-02-03T11:30:35.092Z,7.50
2023-02-03T11:33:03.741Z,6.28
2023-02-03T11:36:14.062Z,7.07
2023-02-03T11:38:42.697Z,7.20
2023-02-03T11:41:18.854Z,7.80
2023-02-03T11:43:49.056Z,4.55
2023-02-03T11:46:16.876Z,7.85
2023-02-03T11:53:13.947Z,4.65
2023-02-03T12:00:31.398Z,6.28
2023-02-03T12:03:50.279Z,6.13
2023-02-03T12:11:21.418Z,5.28
2023-02-03T12:14:18.817Z,2.97
2023-02-03T12:17:53.188Z,3.42
2023-02-03T12:20:53.373Z,4.10
2023-02-03T12:23:51.559Z,2.88
2023-02-03T12:26:43.011Z,3.78
2023-02-03T13:22:08.103Z,6.07
2023-02-03T13:24:35.484Z,10.10
2023-02-03T13:27:47.266Z,8.32
2023-02-03T13:31:00.536Z,7.93
2023-02-03T13:34:24.880Z,10.25
2023-02-03T13:36:57.935Z,11.23
2023-02-03T13:39:46.007Z,8.80
2023-02-03T13:42:34.482Z,6.82
2023-02-03T13:45:27.895Z,8.00
2023-02-03T13:57:02.634Z,15.70
2023-02-03T14:00:39.027Z,14.38
2023-02-03T14:04:34.246Z,12.48
2023-02-03T14:08:18.124Z,20.92
2023-02-03T14:10:45.381Z,12.57
2023-02-03T14:13:21.509Z,12.77
2023-02-03T14:16:22.548Z,17.50
2023-02-03T14:18:49.945Z,19.58
2023-02-03T14:21:48.521Z,10.38
2023-02-03T14:24:17.839Z,11.30
2023-02-03T14:26:57.401Z,11.27
2023-02-03T14:29:32.207Z,13.02
2023-02-03T14:32:48.283Z,16.25
2023-02-03T14:35:42.852Z,13.13
2023-02-03T14:38:19.054Z,18.67
2023-02-03T14:44:35.808Z,18.05
2023-02-03T14:47:29.893Z,13.15
2023-02-03T14:50:58.107Z,14.95
2023-02-03T14:54:12.233Z,17.83
2023-02-03T15:00:34.682Z,12.95
2023-02-03T15:03:10.852Z,22.42
2023-02-03T15:05:45.993Z,13.10
2023-02-03T15:08:46.975Z,13.73
2023-02-03T15:11:25.548Z,18.65
2023-02-03T15:13:54.062Z,16.17
2023-02-03T15:16:27.084Z,16.13
2023-02-03T15:19:19.955Z,12.88
2023-02-03T15:21:46.980Z,23.88
2023-02-03T15:24:23.004Z,22.80
2023-02-03T15:26:58.064Z,16.27
2023-02-03T15:29:34.314Z,21.98
2023-02-03T15:32:19.159Z,18.90
2023-02-03T15:34:50.305Z,23.23
2023-02-03T15:37:24.579Z,17.42
2023-02-03T15:40:23.447Z,14.48
2023-02-03T15:43:22.936Z,14.40
2023-02-03T15:46:03.408Z,20.90
2023-02-03T15:48:37.399Z,13.60
2023-02-03T15:51:11.248Z,15.65
2023-02-03T15:53:49.096Z,20.67
2023-02-03T15:56:42.613Z,20.45
2023-02-03T15:59:30.754Z,19.95
2023-02-03T16:01:59.785Z,19.77
2023-02-03T16:04:31.228Z,21.45
2023-02-03T16:07:01.902Z,22.77
2023-02-03T16:09:41.710Z,23.70
2023-02-03T16:12:16.377Z,19.70
2023-02-03T16:14:46.946Z,14.20
2023-02-03T16:17:35.650Z,20.23
2023-02-03T16:20:39.291Z,21.92
2023-02-03T16:23:22.806Z,21.92
2023-02-03T16:26:17.737Z,21.45
2023-02-03T16:29:27.331Z,19.30
2023-02-03T16:32:16.753Z,23.13
2023-02-03T16:35:03.325Z,20.45
2023-02-03T16:37:57.930Z,15.60
2023-02-03T16:40:43.395Z,21.63
2023-02-03T16:43:35.003Z,20.45
2023-02-03T16:46:20.543Z,21.50
2023-02-03T16:51:42.287Z,22.35
2023-02-03T16:54:14.864Z,14.77
2023-02-03T16:56:42.329Z,16.90
2023-02-03T16:59:09.904Z,17.48
2023-02-03T17:01:37.221Z,14.25
2023-02-03T17:04:04.435Z,18.85
2023-02-03T17:06:34.063Z,23.20
2023-02-03T17:09:01.087Z,16.33
2023-02-03T17:11:28.077Z,13.75
2023-02-03T17:13:55.189Z,18.67
2023-02-03T17:16:25.817Z,15.45
2023-02-03T17:19:00.508Z,24.25
2023-02-03T17:21:29.528Z,20.40
2023-02-03T17:23:59.384Z,16.90
2023-02-03T17:26:27.805Z,16.63
2023-02-03T17:28:54.878Z,19.80
2023-02-03T17:31:22.156Z,15.35
2023-02-03T17:33:52.795Z,21.10
2023-02-03T17:36:22.110Z,20.60
2023-02-03T18:00:24.693Z,19.08
2023-02-03T18:02:55.475Z,21.45
2023-02-03T18:05:23.255Z,18.25
2023-02-03T18:07:50.417Z,14.35
2023-02-03T18:10:17.552Z,18.55
2023-02-03T18:12:44.491Z,16.75
2023-02-03T18:15:13.596Z,17.48
2023-02-03T18:17:41.629Z,17.05
2023-02-03T18:20:09.776Z,17.92
2023-02-03T18:22:36.702Z,19.73
2023-02-03T18:25:04.119Z,15.40
2023-02-03T18:27:31.122Z,19.33
2023-02-03T18:30:00.561Z,15.88
2023-02-03T18:32:27.468Z,15.45
2023-02-03T18:34:54.391Z,19.02
2023-02-03T18:37:21.253Z,19.95
2023-02-03T18:39:48.254Z,15.32
2023-02-03T18:42:15.338Z,15.65
2023-02-03T18:44:44.061Z,22.23
2023-02-03T18:47:11.024Z,25.00
2023-02-03T18:49:39.288Z,17.55
2023-02-03T18:52:06.803Z,19.77
2023-02-03T18:54:33.876Z,14.98
2023-02-03T18:57:02.748Z,17.70
2023-02-03T18:59:30.111Z,15.57
2023-02-03T19:01:57.150Z,19.27
2023-02-03T19:04:24.056Z,20.58
2023-02-03T19:06:52.572Z,18.88
2023-02-03T19:09:22.241Z,22.50
2023-02-03T19:11:49.485Z,20.60
2023-02-03T19:14:20.062Z,21.02
2023-02-03T19:16:50.312Z,12.75
2023-02-03T19:19:17.245Z,25.50
2023-02-03T19:21:44.192Z,16.92
2023-02-03T19:24:13.987Z,17.25
2023-02-03T19:26:40.989Z,23.83
2023-02-03T19:29:08.501Z,16.73
2023-02-03T19:31:38.298Z,23.05
2023-02-03T19:34:05.920Z,26.80
2023-02-03T19:36:32.967Z,15.13
2023-02-03T19:38:59.889Z,17.35
2023-02-03T19:41:27.646Z,17.38
2023-02-03T19:43:54.895Z,17.45
2023-02-03T19:46:22.183Z,25.80
2023-02-03T19:48:49.745Z,19.73
2023-02-03T19:51:17.360Z,23.77
2023-02-03T19:53:44.345Z,19.05
2023-02-03T19:56:11.555Z,20.45
2023-02-03T19:58:39.282Z,17.02
2023-02-03T20:01:06.768Z,19.55
2023-02-03T20:03:33.811Z,18.00
2023-02-03T20:06:01.223Z,18.17
2023-02-03T20:08:28.377Z,20.05
2023-02-03T20:10:56.232Z,21.20
2023-02-03T20:13:23.290Z,17.95
2023-02-03T20:15:50.334Z,24.58
2023-02-03T20:18:17.381Z,15.50
2023-02-03T20:20:44.307Z,18.33
2023-02-03T20:23:13.711Z,17.45
2023-02-03T20:25:40.908Z,19.15
2023-02-03T20:28:08.106Z,17.15
2023-02-03T20:30:38.473Z,16.25
2023-02-03T20:33:05.567Z,14.90
2023-02-03T20:35:32.957Z,22.23
2023-02-03T20:38:00.445Z,19.52
2023-02-03T20:40:36.720Z,19.17
2023-02-03T20:43:24.693Z,18.92
2023-02-03T20:45:52.855Z,18.05
2023-02-03T20:48:25.452Z,18.60
2023-02-03T20:50:56.272Z,15.80
2023-02-03T20:53:26.274Z,21.10
2023-02-03T20:56:00.145Z,21.23
2023-02-03T20:58:33.684Z,21.85
2023-02-03T21:01:00.923Z,12.13
2023-02-03T21:03:46.354Z,19.60
2023-02-03T21:06:20.509Z,18.95
2023-02-03T21:08:48.524Z,21.58
2023-02-03T21:11:19.464Z,20.23
2023-02-03T21:13:49.792Z,24.00
2023-02-03T21:16:24.633Z,20.42
2023-02-03T21:19:00.247Z,25.67
2023-02-03T21:21:40.322Z,19.63
2023-02-03T21:24:36.787Z,20.58
2023-02-03T21:27:30.856Z,23.38
2023-02-03T21:30:03.737Z,24.30
2023-02-03T21:32:40.809Z,18.15
2023-02-03T21:35:34.724Z,24.70
2023-02-03T21:38:28.637Z,19.95
2023-02-03T21:40:55.555Z,21.85
2023-02-03T21:43:24.561Z,19.60
2023-02-03T21:45:51.774Z,20.65
2023-02-03T21:48:37.481Z,24.08
2023-02-03T21:53:55.493Z,19.17
2023-02-03T21:56:25.144Z,21.13
2023-02-03T21:58:58.759Z,20.35
2023-02-03T22:01:32.290Z,16.13
2023-02-03T22:04:01.553Z,16.80
2023-02-03T22:06:43.567Z,16.73
2023-02-03T22:09:19.456Z,23.13
2023-02-03T22:11:46.681Z,24.67
2023-02-03T22:14:16.459Z,16.90
2023-02-03T22:16:44.577Z,17.08
2023-02-03T22:19:11.706Z,20.83
2023-02-03T22:21:39.086Z,14.88
2023-02-03T22:24:06.597Z,17.73
2023-02-03T22:26:33.559Z,22.88
2023-02-03T22:29:00.739Z,22.83
2023-02-03T22:31:27.735Z,26.17
2023-02-03T22:33:54.743Z,18.67
2023-02-03T22:36:23.466Z,22.02
2023-02-03T22:38:50.574Z,18.70
2023-02-03T22:41:17.535Z,23.55
2023-02-03T22:43:44.489Z,26.05
2023-02-03T22:46:11.661Z,23.42
2023-02-03T22:48:38.586Z,20.85
2023-02-03T22:51:05.935Z,15.93
2023-02-03T22:53:32.904Z,21.45
2023-02-03T22:55:59.849Z,23.65
2023-02-03T22:58:26.789Z,16.08
2023-02-03T23:00:53.655Z,20.40
2023-02-03T23:03:20.540Z,17.73
2023-02-03T23:05:47.411Z,18.58
2023-02-03T23:08:14.310Z,18.88
2023-02-03T23:10:41.403Z,18.30
2023-02-03T23:13:08.396Z,12.10
2023-02-03T23:15:35.713Z,15.95
2023-02-03T23:18:02.863Z,13.85
2023-02-03T23:20:30.195Z,19.88
2023-02-03T23:22:57.455Z,17.92
2023-02-03T23:25:24.409Z,20.15
2023-02-03T23:27:51.391Z,17.77
2023-02-03T23:30:18.672Z,16.90
2023-02-03T23:32:47.987Z,15.45
2023-02-03T23:35:43.927Z,18.70
2023-02-03T23:38:10.908Z,22.63
2023-02-03T23:40:37.906Z,13.38
2023-02-03T23:43:05.408Z,13.38
2023-02-03T23:45:32.343Z,27.15
2023-02-03T23:47:59.558Z,19.88
2023-02-03T23:50:26.424Z,23.38
2023-02-03T23:52:53.424Z,22.00
2023-02-03T23:55:21.832Z,12.30
2023-02-03T23:57:49.122Z,8.57
